Time;durP1;ratioP1;P1;durP2;ratioP2;P2;SDS_P1;SDS_P2;PMS_P1;PMS_P2;Temp;Humidity;BMP_temperature;BMP_pressure;BME280_temperature;BME280_humidity;BME280_pressure;Samples;Min_cycle;Max_cycle;Signal;HPM_P1;HPM_P2
2021/12/11 00:00:56;;;;;;;15.30;9.25;;;15.60;80.90;;;;;;1975014;29;20219;-80
2021/12/11 00:02:08;;;;;;;19.02;9.05;;;15.60;82.30;;;;;;1974895;29;20169;-79
2021/12/11 00:03:13;;;;;;;21.38;9.07;;;15.60;81.80;;;;;;1975054;29;20493;-79
2021/12/11 00:04:18;;;;;;;16.63;9.15;;;15.60;81.90;;;;;;1978138;29;20247;-79
2021/12/11 00:05:17;;;;;;;20.40;8.85;;;15.60;84.50;;;;;;1981625;29;20171;-79
2021/12/11 00:06:24;;;;;;;17.67;9.17;;;15.60;83.30;;;;;;1981811;29;20238;-79
2021/12/11 00:07:26;;;;;;;19.35;9.73;;;15.60;84.10;;;;;;1981897;29;20219;-79
2021/12/11 00:08:30;;;;;;;18.52;9.65;;;15.60;83.80;;;;;;1981752;29;20172;-79
2021/12/11 00:09:37;;;;;;;18.58;9.55;;;15.60;89.40;;;;;;1981867;29;20213;-79
2021/12/11 00:10:42;;;;;;;21.13;8.68;;;15.60;85.20;;;;;;1981985;29;20160;-78
2021/12/11 00:11:47;;;;;;;14.65;8.38;;;15.60;79.60;;;;;;1981611;29;20208;-79
2021/12/11 00:12:54;;;;;;;19.70;10.05;;;15.60;82.10;;;;;;1989187;29;20175;-79
2021/12/11 00:13:58;;;;;;;17.80;8.60;;;15.60;83.10;;;;;;1988843;29;20183;-78
2021/12/11 00:15:06;;;;;;;16.27;9.45;;;;;;;;;;1982017;29;20176;-80
2021/12/11 00:16:08;;;;;;;14.93;8.88;;;15.60;77.70;;;;;;1989279;29;20175;-79
2021/12/11 00:17:08;;;;;;;17.00;9.02;;;15.60;83.60;;;;;;1989856;29;20190;-79
2021/12/11 00:18:10;;;;;;;21.95;9.45;;;15.60;84.70;;;;;;1990241;29;20227;-78
2021/12/11 00:19:12;;;;;;;17.98;8.23;;;;;;;;;;1990631;29;20206;-79
2021/12/11 00:20:21;;;;;;;17.90;8.90;;;15.60;76.10;;;;;;1983786;29;20232;-77
2021/12/11 00:21:23;;;;;;;19.77;8.57;;;15.60;77.80;;;;;;1984231;29;20164;-77
2021/12/11 00:22:27;;;;;;;16.58;9.02;;;15.60;77.30;;;;;;1982779;28;20184;-78
2021/12/11 00:23:31;;;;;;;18.77;9.82;;;15.60;77.20;;;;;;1983162;29;20164;-76
2021/12/11 00:24:31;;;;;;;25.77;9.50;;;15.60;76.90;;;;;;1990902;29;20160;-77
2021/12/11 00:25:30;;;;;;;13.00;8.40;;;15.60;76.60;;;;;;1989702;28;20212;-78
2021/12/11 00:26:36;;;;;;;19.03;8.90;;;15.60;76.20;;;;;;1982787;29;20214;-79
2021/12/11 00:27:38;;;;;;;17.20;9.13;;;15.60;76.70;;;;;;1982285;29;20207;-78
2021/12/11 00:28:49;;;;;;;20.17;9.15;;;15.60;76.40;;;;;;1982955;29;20168;-78
2021/12/11 00:29:50;;;;;;;16.55;8.85;;;15.60;76.30;;;;;;1989701;29;20195;-80
2021/12/11 00:30:48;;;;;;;14.80;8.63;;;15.60;76.70;;;;;;1989824;28;20176;-77
2021/12/11 00:32:13;;;;;;;17.40;9.27;;;15.60;77.00;;;;;;1982544;29;20184;-80
2021/12/11 00:33:17;;;;;;;18.92;9.88;;;15.60;77.00;;;;;;1981980;29;20182;-78
2021/12/11 00:34:20;;;;;;;16.13;8.88;;;15.60;77.20;;;;;;1989947;29;20163;-78
2021/12/11 00:35:20;;;;;;;17.33;9.20;;;15.50;77.10;;;;;;1989734;28;20215;-76
2021/12/11 00:36:22;;;;;;;15.10;8.38;;;15.50;77.20;;;;;;1982658;29;20191;-78
2021/12/11 00:37:23;;;;;;;17.02;9.60;;;15.60;77.20;;;;;;1982337;29;20261;-78
2021/12/11 00:38:34;;;;;;;17.50;9.73;;;15.50;76.50;;;;;;1983061;29;20559;-77
2021/12/11 00:39:41;;;;;;;16.17;8.65;;;15.60;77.20;;;;;;1983033;29;20159;-77
2021/12/11 00:40:43;;;;;;;19.83;9.10;;;15.50;77.50;;;;;;1990679;29;20171;-73
2021/12/11 00:41:49;;;;;;;25.35;10.45;;;15.50;77.70;;;;;;1983724;29;20160;-73
2021/12/11 00:42:51;;;;;;;18.42;9.60;;;15.60;77.00;;;;;;1983809;29;20167;-75
2021/12/11 00:43:49;;;;;;;16.95;8.43;;;15.50;77.60;;;;;;1983254;29;20172;-74
2021/12/11 00:44:51;;;;;;;16.80;9.33;;;15.60;77.70;;;;;;1991490;28;20191;-76
2021/12/11 00:45:50;;;;;;;18.42;9.55;;;15.60;77.80;;;;;;1990292;28;20263;-79
2021/12/11 00:46:49;;;;;;;17.20;8.40;;;15.60;77.80;;;;;;1982724;29;20214;-79
2021/12/11 00:47:52;;;;;;;18.33;10.40;;;15.60;77.20;;;;;;1982344;29;20200;-77
2021/12/11 00:48:51;;;;;;;17.55;8.48;;;15.60;77.60;;;;;;1982336;29;20152;-74
2021/12/11 00:49:52;;;;;;;19.30;8.90;;;15.60;77.90;;;;;;1989919;29;20264;-78
2021/12/11 00:51:02;;;;;;;16.40;8.95;;;15.60;77.80;;;;;;1989353;29;20179;-79
2021/12/11 00:52:01;;;;;;;17.83;10.73;;;15.60;77.70;;;;;;1982350;29;20207;-79
2021/12/11 00:53:16;;;;;;;15.17;9.17;;;15.60;76.80;;;;;;1983493;29;20183;-73
2021/12/11 00:54:15;;;;;;;16.73;9.23;;;15.60;77.80;;;;;;1982377;29;20159;-78
2021/12/11 00:55:23;;;;;;;17.27;9.40;;;15.60;77.30;;;;;;1982724;29;20190;-73
2021/12/11 00:56:29;;;;;;;15.98;9.20;;;15.60;78.00;;;;;;1982615;29;20949;-79
2021/12/11 00:57:28;;;;;;;19.30;8.60;;;15.60;78.50;;;;;;1989811;29;20208;-78
2021/12/11 00:58:36;;;;;;;17.67;8.30;;;15.60;78.20;;;;;;1981860;29;20191;-78
2021/12/11 00:59:34;;;;;;;14.07;8.23;;;15.60;79.00;;;;;;1982375;29;20184;-76
2021/12/11 01:00:59;;;;;;;18.87;9.10;;;15.60;79.00;;;;;;1982754;29;20190;-80
2021/12/11 01:01:59;;;;;;;15.85;8.85;;;15.50;79.10;;;;;;1982819;29;20183;-79
2021/12/11 01:02:58;;;;;;;14.50;9.25;;;15.50;79.40;;;;;;1982950;29;20243;-80
2021/12/11 01:04:14;;;;;;;16.80;9.67;;;15.50;79.50;;;;;;1983084;29;20176;-78
2021/12/11 01:05:13;;;;;;;20.60;9.70;;;15.50;79.90;;;;;;1983902;29;20168;-74
2021/12/11 01:06:17;;;;;;;18.93;9.17;;;15.50;80.20;;;;;;1982492;29;20195;-79
2021/12/11 01:07:21;;;;;;;15.48;8.55;;;15.60;80.80;;;;;;1981832;29;20188;-79
2021/12/11 01:08:33;;;;;;;19.00;9.93;;;;;;;;;;1989035;29;20190;-79
2021/12/11 01:09:49;;;;;;;17.17;8.52;;;15.60;80.10;;;;;;1987386;28;20207;-78
2021/12/11 01:10:52;;;;;;;20.98;9.77;;;15.50;81.80;;;;;;1981240;29;20187;-79
2021/12/11 01:12:15;;;;;;;16.67;9.48;;;15.50;80.90;;;;;;1981677;29;20176;-78
2021/12/11 01:13:18;;;;;;;14.77;8.60;;;15.50;80.70;;;;;;1981378;29;20220;-77
2021/12/11 01:14:36;;;;;;;19.98;9.73;;;15.50;81.10;;;;;;1981792;29;20168;-79
2021/12/11 01:15:44;;;;;;;16.70;8.82;;;15.50;80.80;;;;;;1988477;29;20164;-78
2021/12/11 01:16:52;;;;;;;18.50;8.70;;;15.50;80.80;;;;;;1988030;29;20187;-79
2021/12/11 01:18:21;;;;;;;18.67;9.82;;;15.50;81.00;;;;;;1982052;29;20255;-78
2021/12/11 01:19:22;;;;;;;15.13;9.55;;;15.50;81.40;;;;;;1989033;29;20179;-79
2021/12/11 01:20:33;;;;;;;13.73;7.43;;;15.50;80.90;;;;;;1990795;28;20174;-73
2021/12/11 01:22:36;;;;;;;18.45;8.10;;;15.50;82.30;;;;;;1981349;29;20160;-79
2021/12/11 01:24:44;;;;;;;16.80;9.57;;;15.50;83.90;;;;;;1981575;29;20156;-79
2021/12/11 01:25:43;;;;;;;14.40;8.98;;;;;;;;;;1980743;29;20144;-79
2021/12/11 01:26:50;;;;;;;14.20;8.17;;;15.50;90.00;;;;;;1983200;29;20191;-73
2021/12/11 01:27:56;;;;;;;14.93;8.50;;;15.50;87.90;;;;;;1981391;29;20427;-78
2021/12/11 01:28:54;;;;;;;17.75;9.60;;;15.50;89.60;;;;;;1980403;29;20180;-79
2021/12/11 01:29:56;;;;;;;15.90;9.43;;;;;;;;;;1981174;29;20210;-79
2021/12/11 01:30:55;;;;;;;20.45;10.02;;;;;;;;;;1981116;29;20182;-79
2021/12/11 01:31:56;;;;;;;15.00;8.32;;;15.50;84.70;;;;;;1980620;29;20179;-80
2021/12/11 01:32:55;;;;;;;16.40;8.80;;;15.50;88.80;;;;;;1980521;28;20172;-78
2021/12/11 01:33:55;;;;;;;17.27;8.80;;;;;;;;;;1980930;29;20207;-79
2021/12/11 01:34:54;;;;;;;14.90;8.05;;;15.50;85.90;;;;;;1980541;29;20156;-78
2021/12/11 01:35:53;;;;;;;17.80;9.37;;;15.50;85.90;;;;;;1980643;29;20211;-75
2021/12/11 01:36:53;;;;;;;15.82;8.65;;;15.70;86.20;;;;;;1980360;29;20558;-79
2021/12/11 01:38:10;;;;;;;18.20;8.27;;;15.50;85.70;;;;;;1986936;29;20183;-79
2021/12/11 01:39:14;;;;;;;17.50;9.63;;;15.50;86.30;;;;;;1986047;29;20540;-78
2021/12/11 01:40:16;;;;;;;17.13;8.88;;;15.50;84.70;;;;;;1980099;29;20335;-79
2021/12/11 01:41:18;;;;;;;20.40;9.40;;;15.50;87.20;;;;;;1980039;29;20176;-81
2021/12/11 01:42:21;;;;;;;18.63;8.73;;;15.50;84.20;;;;;;1980358;29;20239;-78
2021/12/11 01:43:24;;;;;;;23.63;10.00;;;15.50;84.30;;;;;;1980611;29;20168;-78
2021/12/11 01:44:27;;;;;;;16.30;9.07;;;;;;;;;;1979929;29;20179;-79
2021/12/11 01:45:26;;;;;;;14.77;9.25;;;15.50;82.80;;;;;;1987142;29;20239;-79
2021/12/11 01:46:27;;;;;;;16.95;10.35;;;15.50;84.10;;;;;;1986696;29;20203;-79
2021/12/11 01:47:35;;;;;;;18.40;8.82;;;15.50;83.50;;;;;;1979237;29;20243;-78
2021/12/11 01:48:37;;;;;;;13.77;9.10;;;15.50;83.70;;;;;;1979379;29;20183;-79
2021/12/11 01:49:39;;;;;;;16.08;8.63;;;15.50;83.20;;;;;;1979109;29;20211;-78
2021/12/11 01:50:41;;;;;;;22.08;9.70;;;15.50;83.40;;;;;;1980459;29;20191;-78
2021/12/11 01:51:45;;;;;;;16.42;8.80;;;15.40;82.40;;;;;;1980608;29;20188;-78
2021/12/11 01:52:50;;;;;;;17.25;8.65;;;15.40;82.30;;;;;;1980906;29;20175;-78
2021/12/11 01:53:56;;;;;;;16.60;8.50;;;15.50;82.50;;;;;;1980133;29;20195;-80
2021/12/11 01:54:54;;;;;;;17.77;8.63;;;15.50;81.20;;;;;;1982702;28;20148;-73
2021/12/11 01:55:59;;;;;;;18.23;10.03;;;15.50;81.80;;;;;;1979963;29;20176;-80
2021/12/11 01:57:02;;;;;;;15.20;9.40;;;15.40;80.90;;;;;;1980345;29;20169;-79
2021/12/11 01:58:02;;;;;;;19.92;9.70;;;15.50;81.80;;;;;;1986909;28;20198;-78
2021/12/11 01:59:10;;;;;;;19.00;10.40;;;15.50;81.40;;;;;;1986105;29;20660;-78
2021/12/11 02:00:20;;;;;;;20.88;8.90;;;15.40;81.70;;;;;;1979263;29;20172;-79
2021/12/11 02:01:33;;;;;;;15.05;8.10;;;15.40;81.40;;;;;;1977708;29;20156;-79
2021/12/11 02:02:35;;;;;;;14.43;8.70;;;15.40;82.20;;;;;;1975819;29;20164;-78
2021/12/11 02:03:34;;;;;;;16.27;9.40;;;15.40;82.20;;;;;;1983667;29;20175;-79
2021/12/11 02:04:37;;;;;;;15.40;8.63;;;15.50;82.60;;;;;;1982976;29;20625;-79
2021/12/11 02:05:38;;;;;;;16.42;9.07;;;15.50;82.30;;;;;;1975674;29;20216;-79
2021/12/11 02:06:41;;;;;;;17.33;9.35;;;15.50;82.50;;;;;;1975333;29;20287;-79
2021/12/11 02:07:44;;;;;;;16.92;8.70;;;15.40;82.40;;;;;;1975655;29;20195;-78
2021/12/11 02:08:43;;;;;;;19.33;8.93;;;15.50;82.80;;;;;;1977877;29;20626;-74
2021/12/11 02:09:50;;;;;;;18.20;9.20;;;15.60;82.90;;;;;;1975868;29;20215;-78
2021/12/11 02:11:02;;;;;;;16.08;9.60;;;15.40;82.20;;;;;;1975554;29;20397;-78
2021/12/11 02:12:23;;;;;;;20.55;9.90;;;15.40;82.50;;;;;;1988116;29;20203;-75
2021/12/11 02:13:36;;;;;;;16.75;9.18;;;15.40;82.90;;;;;;1980767;28;20545;-77
2021/12/11 02:14:42;;;;;;;12.88;7.63;;;15.40;83.00;;;;;;1983440;28;20269;-80
2021/12/11 02:15:48;;;;;;;19.65;9.25;;;15.40;83.30;;;;;;1983370;29;20164;-78
2021/12/11 02:16:48;;;;;;;16.27;8.98;;;;;;;;;;1976371;29;20196;-78
2021/12/11 02:17:56;;;;;;;14.13;8.05;;;15.40;84.30;;;;;;1976882;29;20770;-78
2021/12/11 02:19:04;;;;;;;15.07;9.10;;;15.40;89.50;;;;;;1977096;29;20565;-78
2021/12/11 02:20:07;;;;;;;16.15;8.52;;;15.40;90.10;;;;;;1977006;29;20492;-80
2021/12/11 02:21:18;;;;;;;16.33;9.50;;;15.40;90.00;;;;;;1977335;29;20191;-79
2021/12/11 02:22:40;;;;;;;18.05;9.48;;;15.40;86.40;;;;;;1975487;29;20472;-78
2021/12/11 02:23:39;;;;;;;14.82;8.25;;;;;;;;;;1975386;29;20271;-79
2021/12/11 02:24:41;;;;;;;16.05;9.07;;;;;;;;;;1975834;29;20515;-80
2021/12/11 02:25:44;;;;;;;21.25;9.20;;;15.40;83.50;;;;;;1975741;29;20204;-78
2021/12/11 02:26:43;;;;;;;13.75;7.85;;;15.40;83.60;;;;;;1977553;29;20203;-79
2021/12/11 02:27:50;;;;;;;19.00;8.53;;;15.40;87.60;;;;;;1975386;29;20282;-77
2021/12/11 02:28:58;;;;;;;13.05;8.50;;;15.40;90.50;;;;;;1976002;29;20164;-78
2021/12/11 02:30:20;;;;;;;19.15;9.55;;;15.40;87.80;;;;;;1975490;29;20164;-78
2021/12/11 02:31:30;;;;;;;14.25;8.80;;;15.30;85.80;;;;;;1982304;29;20163;-79
2021/12/11 02:32:36;;;;;;;16.10;9.35;;;15.40;82.10;;;;;;1982107;29;20163;-79
2021/12/11 02:33:51;;;;;;;18.98;9.95;;;15.50;80.80;;;;;;1975526;29;20219;-79
2021/12/11 02:34:54;;;;;;;15.07;8.93;;;15.40;81.50;;;;;;1974662;29;20236;-77
2021/12/11 02:36:10;;;;;;;13.48;7.97;;;15.30;80.50;;;;;;1974541;29;20152;-79
2021/12/11 02:37:37;;;;;;;14.80;9.10;;;15.40;81.00;;;;;;1975001;29;20163;-78
2021/12/11 02:38:53;;;;;;;17.00;8.35;;;15.60;81.00;;;;;;1974962;29;20198;-79
2021/12/11 02:39:55;;;;;;;16.50;8.95;;;15.40;80.80;;;;;;1976106;29;20183;-78
2021/12/11 02:41:03;;;;;;;13.85;8.05;;;15.30;81.00;;;;;;1976091;29;20164;-79
2021/12/11 02:42:20;;;;;;;17.63;9.13;;;15.30;81.00;;;;;;1976443;28;20216;-79
2021/12/11 02:43:30;;;;;;;17.10;8.57;;;15.30;81.00;;;;;;1974717;29;20161;-78
2021/12/11 02:44:39;;;;;;;18.77;9.75;;;15.30;81.20;;;;;;1974654;29;20164;-77
2021/12/11 02:45:46;;;;;;;18.55;9.25;;;15.30;81.50;;;;;;1981623;29;20214;-79
2021/12/11 02:47:03;;;;;;;15.45;8.73;;;15.40;81.50;;;;;;1982639;29;20190;-79
2021/12/11 02:48:12;;;;;;;16.13;9.18;;;15.30;82.40;;;;;;1974052;29;20188;-78
2021/12/11 02:49:27;;;;;;;17.90;8.52;;;15.40;82.60;;;;;;1973212;29;20224;-79
2021/12/11 02:50:35;;;;;;;15.77;9.65;;;;;;;;;;1974388;29;20569;-78
2021/12/11 02:51:56;;;;;;;17.45;9.60;;;15.30;81.90;;;;;;1974222;29;20180;-78
2021/12/11 02:53:06;;;;;;;18.35;9.10;;;15.30;91.40;;;;;;1974663;29;20183;-79
2021/12/11 02:54:14;;;;;;;13.30;8.35;;;15.40;87.00;;;;;;1975895;29;20532;-74
2021/12/11 02:55:20;;;;;;;16.70;9.00;;;15.40;89.40;;;;;;1974588;29;20200;-78
2021/12/11 02:56:32;;;;;;;14.77;7.82;;;15.50;86.10;;;;;;1979763;29;20195;-76
2021/12/11 02:57:40;;;;;;;15.77;8.20;;;15.30;87.00;;;;;;1974791;29;20156;-78
2021/12/11 02:58:45;;;;;;;16.45;8.85;;;15.30;84.90;;;;;;1975693;29;20156;-78
2021/12/11 02:59:46;;;;;;;15.05;8.63;;;15.40;87.00;;;;;;1981205;29;20167;-78
2021/12/11 03:00:55;;;;;;;15.90;8.45;;;15.60;90.40;;;;;;1977713;29;20172;-78
2021/12/11 03:02:12;;;;;;;17.52;9.30;;;15.30;84.10;;;;;;1975648;29;20187;-79
2021/12/11 03:03:12;;;;;;;15.50;9.05;;;;;;;;;;1982194;29;20668;-78
2021/12/11 03:04:21;;;;;;;17.70;9.50;;;15.40;76.60;;;;;;1981895;29;20265;-79
2021/12/11 03:05:25;;;;;;;15.23;8.27;;;15.30;77.80;;;;;;1990407;28;20174;-78
2021/12/11 03:06:26;;;;;;;23.75;8.20;;;15.30;77.90;;;;;;1990340;28;20186;-78
2021/12/11 03:07:36;;;;;;;17.98;8.48;;;15.30;78.20;;;;;;1975476;29;20183;-78
2021/12/11 03:08:35;;;;;;;20.23;10.65;;;15.30;78.80;;;;;;1976136;29;20159;-78
2021/12/11 03:09:37;;;;;;;16.90;9.80;;;15.50;81.00;;;;;;1975222;29;20207;-78
2021/12/11 03:10:38;;;;;;;14.07;8.50;;;15.30;81.70;;;;;;1975337;29;20183;-78
2021/12/11 03:11:37;;;;;;;18.85;8.40;;;15.30;80.80;;;;;;1975611;29;20182;-76
2021/12/11 03:12:37;;;;;;;16.55;8.93;;;15.30;86.20;;;;;;1977031;29;20172;-76
2021/12/11 03:13:38;;;;;;;15.48;8.82;;;15.30;83.10;;;;;;1978035;29;20178;-78
2021/12/11 03:14:37;;;;;;;12.30;7.78;;;15.20;81.30;;;;;;1978307;29;20164;-77
2021/12/11 03:15:36;;;;;;;16.67;9.20;;;15.30;84.80;;;;;;1978156;29;20172;-76
2021/12/11 03:16:36;;;;;;;13.40;8.73;;;15.30;87.30;;;;;;1978224;29;20184;-76
2021/12/11 03:17:35;;;;;;;14.00;8.48;;;15.30;82.90;;;;;;1978788;29;20281;-76
2021/12/11 03:18:34;;;;;;;16.80;8.70;;;15.30;83.10;;;;;;1977995;28;20311;-77
2021/12/11 03:19:35;;;;;;;18.80;9.27;;;15.30;82.10;;;;;;1976236;29;20419;-77
2021/12/11 03:20:35;;;;;;;15.48;8.32;;;15.30;82.80;;;;;;1977101;29;20183;-78
2021/12/11 03:21:35;;;;;;;13.73;8.30;;;15.30;83.80;;;;;;1979642;29;20255;-76
2021/12/11 03:22:35;;;;;;;15.05;8.93;;;15.30;83.70;;;;;;1980671;29;20168;-78
2021/12/11 03:23:33;;;;;;;15.43;7.72;;;15.30;85.10;;;;;;1981872;29;20186;-76
2021/12/11 03:24:33;;;;;;;14.13;8.17;;;15.50;83.70;;;;;;1982353;29;20659;-74
2021/12/11 03:25:32;;;;;;;14.07;7.97;;;15.40;85.70;;;;;;1983093;29;20203;-74
2021/12/11 03:26:31;;;;;;;17.57;8.80;;;15.20;86.10;;;;;;1982755;29;20187;-78
2021/12/11 03:27:30;;;;;;;20.57;9.77;;;15.30;84.00;;;;;;1980886;29;20463;-78
2021/12/11 03:28:28;;;;;;;16.80;9.20;;;15.30;82.10;;;;;;1980684;29;20958;-76
2021/12/11 03:29:27;;;;;;;18.70;9.47;;;15.30;84.50;;;;;;1995521;28;20210;-78
2021/12/11 03:30:31;;;;;;;14.60;8.60;;;15.30;85.70;;;;;;1995873;28;20317;-77
2021/12/11 03:31:30;;;;;;;18.30;9.27;;;15.30;84.60;;;;;;1981387;29;20160;-75
2021/12/11 03:32:28;;;;;;;19.83;9.73;;;;;;;;;;1981409;28;20165;-76
2021/12/11 03:33:41;;;;;;;16.20;8.30;;;15.30;82.10;;;;;;1981071;29;20809;-75
2021/12/11 03:34:41;;;;;;;15.93;8.75;;;15.30;83.10;;;;;;1980217;29;20396;-77
2021/12/11 03:35:41;;;;;;;17.02;8.63;;;15.20;79.00;;;;;;1980929;29;20172;-76
2021/12/11 03:36:41;;;;;;;17.42;9.82;;;15.20;82.70;;;;;;1982669;29;20192;-76
2021/12/11 03:37:40;;;;;;;16.02;8.07;;;15.30;85.50;;;;;;1981997;29;20219;-73
2021/12/11 03:38:40;;;;;;;15.93;8.47;;;;;;;;;;1979960;29;20175;-74
2021/12/11 03:39:40;;;;;;;16.02;9.45;;;;;;;;;;1980142;29;20228;-76
2021/12/11 03:40:40;;;;;;;12.82;8.15;;;15.30;83.00;;;;;;1979326;29;20176;-76
2021/12/11 03:41:40;;;;;;;17.45;8.70;;;15.20;83.70;;;;;;1979696;29;20187;-76
2021/12/11 03:42:41;;;;;;;14.43;8.45;;;15.20;79.70;;;;;;1979756;29;20187;-76
2021/12/11 03:43:40;;;;;;;15.65;8.52;;;15.20;74.90;;;;;;1981184;29;20211;-75
2021/12/11 03:44:41;;;;;;;17.25;8.27;;;15.30;74.70;;;;;;1980840;29;20180;-75
2021/12/11 03:45:44;;;;;;;16.88;8.75;;;15.20;74.50;;;;;;1980777;29;20200;-76
2021/12/11 03:46:47;;;;;;;15.18;9.35;;;15.20;74.50;;;;;;1981885;29;20219;-75
2021/12/11 03:47:50;;;;;;;13.43;7.57;;;15.30;74.80;;;;;;1987007;29;20218;-78
2021/12/11 03:48:58;;;;;;;19.48;8.90;;;15.20;75.10;;;;;;1986651;28;20175;-78
2021/12/11 03:49:57;;;;;;;17.55;9.65;;;15.20;74.50;;;;;;1980042;29;20168;-77
2021/12/11 03:50:58;;;;;;;14.27;8.20;;;15.20;74.50;;;;;;1980188;29;20186;-77
2021/12/11 03:51:56;;;;;;;16.00;8.10;;;15.20;74.60;;;;;;1981403;29;20804;-73
2021/12/11 03:52:56;;;;;;;18.60;9.30;;;15.30;74.90;;;;;;1980662;29;20231;-76
2021/12/11 03:53:55;;;;;;;14.18;8.25;;;15.20;74.60;;;;;;1982116;29;20175;-75
2021/12/11 03:54:54;;;;;;;13.63;7.75;;;15.20;74.50;;;;;;1981309;29;20199;-77
2021/12/11 03:55:56;;;;;;;16.65;7.70;;;15.30;74.60;;;;;;1982621;29;20196;-73
2021/12/11 03:56:56;;;;;;;17.02;7.85;;;15.20;74.50;;;;;;1982444;29;20192;-75
2021/12/11 03:58:00;;;;;;;14.80;8.38;;;15.30;74.70;;;;;;1981775;29;20244;-75
2021/12/11 03:58:59;;;;;;;14.98;8.73;;;15.20;74.50;;;;;;1988168;28;20188;-78
2021/12/11 03:59:58;;;;;;;17.25;9.10;;;15.20;74.40;;;;;;1988629;28;20179;-77
2021/12/11 04:01:06;;;;;;;14.70;8.93;;;15.20;75.40;;;;;;1982876;29;20214;-74
2021/12/11 04:02:09;;;;;;;15.38;9.23;;;15.00;74.40;;;;;;1983316;29;20375;-76
2021/12/11 04:03:10;;;;;;;15.20;8.60;;;15.20;74.70;;;;;;1983256;29;20183;-75
2021/12/11 04:04:18;;;;;;;13.57;8.30;;;15.20;74.70;;;;;;1983171;29;20263;-77
2021/12/11 04:05:16;;;;;;;18.58;9.00;;;15.20;74.70;;;;;;1982163;29;20184;-76
2021/12/11 04:06:16;;;;;;;15.80;8.10;;;15.20;74.70;;;;;;1982265;29;20199;-76
2021/12/11 04:07:22;;;;;;;13.65;8.52;;;15.20;74.90;;;;;;1978393;29;20183;-77
2021/12/11 04:08:25;;;;;;;16.88;9.07;;;15.20;74.80;;;;;;1977923;29;20172;-77
2021/12/11 04:09:25;;;;;;;13.88;8.30;;;15.20;74.60;;;;;;1981482;29;20211;-76
2021/12/11 04:10:27;;;;;;;13.70;7.75;;;15.20;74.60;;;;;;1980043;29;20180;-76
2021/12/11 04:11:30;;;;;;;19.55;9.73;;;15.20;74.80;;;;;;1982198;29;20164;-75
2021/12/11 04:12:29;;;;;;;14.60;7.82;;;15.20;74.90;;;;;;1981240;29;20180;-77
2021/12/11 04:13:27;;;;;;;12.80;8.27;;;15.20;74.30;;;;;;1981244;29;20179;-77
2021/12/11 04:14:29;;;;;;;16.70;8.90;;;15.20;74.90;;;;;;1980395;29;20176;-77
2021/12/11 04:15:29;;;;;;;20.35;8.93;;;15.20;74.70;;;;;;1980206;29;20179;-77
2021/12/11 04:16:30;;;;;;;13.93;8.27;;;15.20;74.80;;;;;;1980137;29;20199;-76
2021/12/11 04:17:29;;;;;;;14.68;8.13;;;15.20;74.80;;;;;;1979599;29;20446;-76
2021/12/11 04:18:27;;;;;;;17.77;8.17;;;15.30;75.00;;;;;;1986453;29;20194;-77
2021/12/11 04:19:26;;;;;;;15.83;8.63;;;15.20;74.90;;;;;;1977242;29;20863;-78
2021/12/11 04:20:27;;;;;;;12.57;7.67;;;15.20;74.70;;;;;;1977877;29;20175;-75
2021/12/11 04:21:26;;;;;;;15.60;8.55;;;15.20;74.80;;;;;;1978001;29;20443;-76
2021/12/11 04:22:25;;;;;;;14.60;8.47;;;15.20;74.70;;;;;;1978758;29;20531;-77
2021/12/11 04:23:24;;;;;;;15.57;8.73;;;15.20;74.70;;;;;;1976137;28;20517;-76
2021/12/11 04:24:25;;;;;;;17.70;9.20;;;15.20;74.30;;;;;;1976527;29;20190;-77
2021/12/11 04:25:26;;;;;;;14.18;8.50;;;15.20;74.20;;;;;;1978876;29;20190;-76
2021/12/11 04:26:25;;;;;;;17.40;7.95;;;15.20;74.00;;;;;;1977828;29;20689;-76
2021/12/11 04:27:25;;;;;;;17.27;9.43;;;15.10;73.90;;;;;;1978463;29;20223;-77
2021/12/11 04:28:26;;;;;;;15.57;8.27;;;15.20;74.60;;;;;;1976288;29;20511;-77
2021/12/11 04:29:25;;;;;;;15.23;8.38;;;15.10;74.60;;;;;;1976990;29;20215;-77
2021/12/11 04:30:25;;;;;;;11.70;7.73;;;15.10;75.00;;;;;;1976649;29;20719;-77
2021/12/11 04:31:28;;;;;;;14.13;8.30;;;15.10;74.80;;;;;;1979890;29;20658;-75
2021/12/11 04:32:31;;;;;;;18.48;8.90;;;15.10;75.00;;;;;;1980018;29;20650;-76
2021/12/11 04:33:37;;;;;;;13.52;7.95;;;15.10;75.20;;;;;;1979327;29;20176;-77
2021/12/11 04:34:36;;;;;;;17.88;9.20;;;15.20;75.20;;;;;;1982961;28;20269;-77
2021/12/11 04:35:35;;;;;;;14.70;8.45;;;15.10;74.60;;;;;;1985695;29;20234;-76
2021/12/11 04:36:38;;;;;;;16.30;8.57;;;15.10;75.70;;;;;;1981902;29;20191;-76
2021/12/11 04:37:37;;;;;;;13.60;7.70;;;15.10;74.90;;;;;;1982720;29;20642;-77
2021/12/11 04:38:37;;;;;;;14.23;7.47;;;15.10;74.90;;;;;;1978438;29;20191;-77
2021/12/11 04:39:37;;;;;;;17.17;8.65;;;15.10;74.60;;;;;;1977345;29;20178;-77
2021/12/11 04:40:44;;;;;;;15.20;7.90;;;15.10;74.80;;;;;;1978087;29;20218;-77
2021/12/11 04:42:12;;;;;;;18.60;8.68;;;15.10;74.90;;;;;;1977609;29;20207;-76
2021/12/11 04:43:14;;;;;;;16.80;8.00;;;15.10;74.80;;;;;;1978061;29;20319;-77
2021/12/11 04:44:25;;;;;;;16.00;8.15;;;15.10;74.90;;;;;;1977667;29;20153;-77
2021/12/11 04:45:38;;;;;;;14.27;8.02;;;15.10;74.80;;;;;;1981346;29;20175;-77
2021/12/11 04:46:36;;;;;;;16.38;8.32;;;15.10;74.90;;;;;;1981274;29;20191;-77
2021/12/11 04:47:45;;;;;;;15.30;7.60;;;15.30;75.30;;;;;;1978089;29;20231;-77
2021/12/11 04:48:57;;;;;;;14.82;8.77;;;15.10;75.10;;;;;;1982425;28;20172;-78
2021/12/11 04:50:02;;;;;;;14.10;7.65;;;15.10;75.10;;;;;;1981552;29;20175;-77
2021/12/11 04:51:17;;;;;;;15.80;8.63;;;15.10;75.40;;;;;;1975642;29;20608;-77
2021/12/11 04:52:32;;;;;;;18.63;9.50;;;15.10;75.20;;;;;;1975958;28;20180;-78
2021/12/11 04:55:03;;;;;;;15.13;8.20;;;15.10;75.40;;;;;;1977692;29;20580;-75
2021/12/11 04:58:12;;;;;;;14.82;8.15;;;15.00;75.20;;;;;;1982336;29;20167;-76
2021/12/11 05:07:01;;;;;;;14.20;8.57;;;15.10;75.30;;;;;;1978285;29;20200;-77
2021/12/11 05:10:22;;;;;;;14.27;7.45;;;15.00;75.20;;;;;;1977165;29;20580;-77
2021/12/11 05:11:32;;;;;;;18.10;9.20;;;15.10;75.50;;;;;;1976746;28;20164;-77
2021/12/11 05:12:35;;;;;;;12.48;7.68;;;15.10;75.40;;;;;;1977027;29;20207;-75
2021/12/11 05:13:34;;;;;;;16.80;8.75;;;15.00;75.10;;;;;;1974942;29;20595;-76
2021/12/11 05:14:33;;;;;;;13.00;7.50;;;15.10;75.40;;;;;;1974625;29;20254;-76
2021/12/11 05:15:38;;;;;;;11.60;7.15;;;15.10;75.20;;;;;;1981774;29;20497;-77
2021/12/11 05:16:37;;;;;;;17.42;8.25;;;15.10;74.70;;;;;;1981553;28;20226;-76
2021/12/11 05:17:36;;;;;;;17.13;8.63;;;15.00;74.70;;;;;;1974818;29;20183;-76
2021/12/11 05:18:37;;;;;;;17.50;8.63;;;15.10;75.40;;;;;;1974561;29;20200;-78
2021/12/11 05:19:37;;;;;;;13.55;8.30;;;15.00;75.00;;;;;;1974426;29;20660;-75
2021/12/11 05:20:40;;;;;;;15.45;8.70;;;15.10;75.10;;;;;;1974597;29;20172;-76
2021/12/11 05:21:40;;;;;;;16.70;9.25;;;15.10;75.10;;;;;;1974558;29;20171;-76
2021/12/11 05:22:38;;;;;;;17.60;8.10;;;15.10;74.90;;;;;;1974298;29;20232;-76
2021/12/11 05:23:38;;;;;;;15.27;8.77;;;15.10;75.00;;;;;;1974531;29;20469;-78
2021/12/11 05:24:41;;;;;;;19.85;9.05;;;15.00;74.80;;;;;;1974514;29;20172;-77
2021/12/11 05:25:39;;;;;;;18.15;9.27;;;15.10;75.10;;;;;;1974640;29;20181;-77
2021/12/11 05:26:38;;;;;;;13.90;8.47;;;15.10;75.10;;;;;;1974355;29;20725;-77
2021/12/11 05:27:38;;;;;;;14.95;7.85;;;15.00;74.90;;;;;;1974317;29;20232;-76
2021/12/11 05:28:38;;;;;;;13.40;8.55;;;15.10;75.30;;;;;;1974345;29;20188;-77
2021/12/11 05:29:39;;;;;;;13.80;8.35;;;15.10;75.00;;;;;;1974233;29;20200;-77
2021/12/11 05:30:42;;;;;;;15.70;8.80;;;15.10;75.00;;;;;;1974221;29;20183;-78
2021/12/11 05:31:41;;;;;;;17.35;8.68;;;15.10;74.90;;;;;;1973740;29;20257;-76
2021/12/11 05:32:39;;;;;;;13.60;8.50;;;15.00;74.90;;;;;;1974038;29;20176;-76
2021/12/11 05:33:40;;;;;;;17.80;8.50;;;15.00;74.90;;;;;;1974302;29;20442;-76
2021/12/11 05:34:39;;;;;;;14.02;7.85;;;15.00;74.80;;;;;;1974311;29;20511;-76
2021/12/11 05:35:40;;;;;;;14.27;8.02;;;15.00;75.00;;;;;;1974329;29;20250;-77
2021/12/11 05:36:39;;;;;;;14.50;8.50;;;15.00;74.90;;;;;;1981218;28;20192;-77
2021/12/11 05:37:38;;;;;;;16.20;8.90;;;15.00;74.90;;;;;;1981541;29;20187;-77
2021/12/11 05:38:39;;;;;;;15.80;9.30;;;15.00;74.80;;;;;;1975155;29;20168;-77
2021/12/11 05:39:38;;;;;;;16.48;9.10;;;15.00;74.90;;;;;;1974634;29;20538;-76
2021/12/11 05:40:41;;;;;;;12.40;8.10;;;15.00;74.80;;;;;;1974800;29;20211;-75
2021/12/11 05:41:41;;;;;;;18.02;8.85;;;15.00;75.00;;;;;;1974767;29;20396;-77
2021/12/11 05:42:39;;;;;;;15.10;7.97;;;15.00;75.00;;;;;;1974450;29;20537;-77
2021/12/11 05:43:39;;;;;;;12.43;7.93;;;15.00;74.80;;;;;;1974729;29;20183;-77
2021/12/11 05:44:38;;;;;;;17.88;8.68;;;15.00;74.80;;;;;;1974585;29;20175;-77
2021/12/11 05:45:38;;;;;;;19.50;8.30;;;15.20;74.90;;;;;;1974533;29;20706;-76